createdAt,value
2018-12-15T00:03:23.334Z,10.20
2018-12-15T00:08:29.857Z,10.20
2018-12-15T00:13:34.676Z,10.00
2018-12-15T00:18:41.097Z,9.80
2018-12-15T00:23:46.439Z,9.80
2018-12-15T00:28:53.269Z,9.70
2018-12-15T00:33:59.875Z,9.80
2018-12-15T00:39:06.906Z,9.80
2018-12-15T00:44:12.173Z,9.70
2018-12-15T00:49:18.239Z,9.50
2018-12-15T00:54:23.219Z,9.40
2018-12-15T00:59:29.808Z,9.30
2018-12-15T01:04:34.578Z,9.10
2018-12-15T01:09:40.374Z,9.30
2018-12-15T01:14:45.281Z,9.20
2018-12-15T01:19:51.601Z,9.30
2018-12-15T01:24:58.411Z,9.40
2018-12-15T01:30:03.517Z,9.40
2018-12-15T01:35:09.915Z,9.20
2018-12-15T01:40:15.021Z,9.10
2018-12-15T01:45:20.630Z,9.10
2018-12-15T01:50:25.541Z,9.20
2018-12-15T01:55:32.506Z,9.20
2018-12-15T02:00:37.550Z,9.10
2018-12-15T02:05:42.554Z,9.10
2018-12-15T02:10:49.337Z,9.00
2018-12-15T02:15:55.085Z,9.10
2018-12-15T02:21:02.229Z,9.20
2018-12-15T02:26:09.017Z,9.20
2018-12-15T02:31:13.906Z,9.00
2018-12-15T02:36:19.881Z,9.00
2018-12-15T02:41:25.381Z,9.00
2018-12-15T02:46:30.284Z,9.10
2018-12-15T02:51:35.281Z,9.10
2018-12-15T02:56:42.116Z,9.10
2018-12-15T03:01:49.500Z,9.00
2018-12-15T03:06:54.361Z,8.90
2018-12-15T03:12:06.338Z,8.80
2018-12-15T03:17:12.146Z,8.70
2018-12-15T03:22:21.191Z,8.70
2018-12-15T03:27:26.045Z,8.70
2018-12-15T03:32:34.916Z,8.70
2018-12-15T03:37:49.371Z,8.70
2018-12-15T03:42:55.034Z,8.50
2018-12-15T03:48:02.376Z,8.40
2018-12-15T03:53:12.427Z,8.30
2018-12-15T03:58:18.610Z,8.30
2018-12-15T04:03:24.300Z,8.30
2018-12-15T04:08:30.396Z,8.40
2018-12-15T04:13:36.105Z,8.40
2018-12-15T04:18:42.195Z,8.40
2018-12-15T04:23:47.772Z,8.40
2018-12-15T04:28:52.817Z,8.50
2018-12-15T04:33:59.674Z,8.50
2018-12-15T04:39:06.775Z,8.40
2018-12-15T04:44:12.191Z,8.30
2018-12-15T04:49:17.776Z,8.30
2018-12-15T04:54:22.816Z,8.20
2018-12-15T04:59:29.955Z,8.30
2018-12-15T05:04:35.277Z,8.40
2018-12-15T05:09:40.536Z,8.30
2018-12-15T05:14:45.557Z,8.20
2018-12-15T05:19:51.911Z,8.00
2018-12-15T05:24:58.285Z,8.10
2018-12-15T05:30:03.630Z,8.20
2018-12-15T05:35:09.350Z,8.20
2018-12-15T05:40:14.939Z,8.20
2018-12-15T05:45:21.333Z,8.00
2018-12-15T05:50:26.318Z,8.10
2018-12-15T05:55:32.205Z,8.00
2018-12-15T06:00:38.326Z,8.30
2018-12-15T06:05:43.242Z,8.10
2018-12-15T06:10:50.254Z,7.90
2018-12-15T06:15:55.679Z,7.90
2018-12-15T06:21:02.238Z,7.90
2018-12-15T06:26:07.687Z,8.00
2018-12-15T06:31:13.291Z,8.10
2018-12-15T06:36:19.821Z,8.30
2018-12-15T06:41:24.685Z,8.30
2018-12-15T06:46:29.769Z,8.30
2018-12-15T06:51:34.834Z,8.20
2018-12-15T06:56:41.241Z,8.20
2018-12-15T07:01:47.088Z,8.20
2018-12-15T07:06:52.522Z,8.20
2018-12-15T07:11:58.417Z,8.10
2018-12-15T07:17:03.974Z,8.00
2018-12-15T07:22:09.602Z,8.20
2018-12-15T07:27:14.683Z,8.20
2018-12-15T07:32:20.431Z,8.20
2018-12-15T07:37:25.298Z,8.30
2018-12-15T07:42:30.406Z,8.40
2018-12-15T07:47:36.258Z,8.50
2018-12-15T07:52:43.175Z,8.70
2018-12-15T07:57:50.387Z,8.90
2018-12-15T08:02:55.355Z,8.90
2018-12-15T08:08:01.337Z,8.90
2018-12-15T08:13:08.665Z,9.00
2018-12-15T08:18:14.084Z,9.10
2018-12-15T08:23:19.882Z,9.20
2018-12-15T08:28:25.750Z,9.30
2018-12-15T08:33:32.083Z,9.50
2018-12-15T08:38:38.035Z,9.70
2018-12-15T08:43:44.370Z,9.90
2018-12-15T08:48:56.730Z,10.00
2018-12-15T08:54:02.150Z,10.00
2018-12-15T08:59:08.262Z,10.10
2018-12-15T09:04:13.150Z,10.30
2018-12-15T09:09:19.189Z,10.50
2018-12-15T09:14:24.468Z,10.70
2018-12-15T09:19:31.147Z,10.90
2018-12-15T09:24:36.970Z,11.20
2018-12-15T09:29:42.168Z,11.50
2018-12-15T09:34:48.519Z,11.80
2018-12-15T09:39:55.160Z,11.80
2018-12-15T09:45:00.618Z,12.10
2018-12-15T09:50:06.219Z,12.30
2018-12-15T09:55:12.209Z,12.40
2018-12-15T10:00:18.473Z,12.30
2018-12-15T10:05:24.845Z,12.60
2018-12-15T10:10:31.459Z,13.00
2018-12-15T10:15:38.253Z,13.20
2018-12-15T10:20:43.092Z,13.20
2018-12-15T10:25:49.858Z,13.20
2018-12-15T10:31:00.023Z,13.40
2018-12-15T10:36:04.956Z,13.50
2018-12-15T10:41:11.145Z,13.90
2018-12-15T10:46:16.023Z,13.70
2018-12-15T10:51:22.823Z,13.80
2018-12-15T10:56:29.206Z,13.70
2018-12-15T11:01:35.008Z,14.00
2018-12-15T11:06:40.388Z,14.20
2018-12-15T11:11:46.203Z,14.60
2018-12-15T11:16:52.550Z,14.70
2018-12-15T11:21:58.057Z,14.20
2018-12-15T11:27:03.715Z,14.50
2018-12-15T11:32:09.871Z,14.60
2018-12-15T11:37:16.239Z,14.70
2018-12-15T11:42:22.297Z,15.60
2018-12-15T11:47:27.698Z,14.80
2018-12-15T11:52:33.042Z,14.30
2018-12-15T11:57:39.475Z,14.50
2018-12-15T12:02:44.882Z,14.50
2018-12-15T12:07:51.176Z,15.10
2018-12-15T12:12:56.814Z,15.40
2018-12-15T12:18:03.931Z,15.30
2018-12-15T12:23:13.468Z,15.50
2018-12-15T12:28:33.944Z,15.90
2018-12-15T12:33:39.411Z,16.30
2018-12-15T12:38:45.647Z,16.50
2018-12-15T12:49:09.726Z,16.10
2018-12-15T12:54:14.758Z,16.30
2018-12-15T12:59:20.730Z,15.70
2018-12-15T13:04:26.329Z,15.90
2018-12-15T13:09:33.773Z,16.20
2018-12-15T13:14:40.202Z,16.30
2018-12-15T13:19:45.971Z,16.30
2018-12-15T13:24:52.727Z,16.70
2018-12-15T13:29:58.293Z,16.40
2018-12-15T13:35:03.618Z,16.60
2018-12-15T13:40:09.775Z,17.30
2018-12-15T13:45:14.978Z,17.10
2018-12-15T13:50:20.684Z,17.30
2018-12-15T13:55:26.226Z,16.90
2018-12-15T14:00:32.103Z,17.60
2018-12-15T14:05:37.563Z,16.80
2018-12-15T14:10:43.733Z,15.60
2018-12-15T14:15:49.991Z,15.90
2018-12-15T14:20:55.485Z,15.80
2018-12-15T14:26:04.119Z,16.80
2018-12-15T14:31:10.376Z,16.20
2018-12-15T14:36:15.179Z,15.60
2018-12-15T14:41:21.767Z,15.20
2018-12-15T14:46:29.336Z,15.00
2018-12-15T14:51:34.279Z,14.80
2018-12-15T14:56:40.371Z,14.80
2018-12-15T15:01:45.269Z,14.90
2018-12-15T15:06:51.167Z,14.90
2018-12-15T15:11:56.265Z,14.90
2018-12-15T15:17:02.099Z,14.70
2018-12-15T15:22:08.706Z,14.70
2018-12-15T15:27:13.499Z,14.40
2018-12-15T15:32:19.881Z,14.30
2018-12-15T15:37:25.123Z,14.10
2018-12-15T15:42:30.872Z,14.00
2018-12-15T15:47:35.838Z,13.90
2018-12-15T15:52:42.829Z,13.90
2018-12-15T15:57:49.426Z,13.90
2018-12-15T16:02:54.518Z,13.70
2018-12-15T16:08:00.488Z,13.60
2018-12-15T16:13:05.491Z,13.40
2018-12-15T16:18:12.220Z,13.00
2018-12-15T16:23:18.322Z,13.10
2018-12-15T16:28:24.718Z,13.10
2018-12-15T16:33:30.574Z,12.70
2018-12-15T16:38:35.567Z,12.60
2018-12-15T16:43:42.261Z,12.40
2018-12-15T16:48:49.081Z,12.20
2018-12-15T16:53:54.266Z,12.10
2018-12-15T16:59:01.241Z,12.10
2018-12-15T17:04:06.248Z,12.00
2018-12-15T17:09:12.251Z,11.80
2018-12-15T17:14:18.411Z,11.90
2018-12-15T17:19:23.421Z,12.00
2018-12-15T17:24:29.773Z,11.80
2018-12-15T17:29:34.894Z,11.80
2018-12-15T17:34:41.188Z,11.70
2018-12-15T17:39:46.065Z,11.70
2018-12-15T17:44:52.861Z,11.60
2018-12-15T17:49:59.643Z,11.30
2018-12-15T17:55:05.460Z,11.40
2018-12-15T18:00:13.605Z,11.30
2018-12-15T18:05:19.872Z,11.10
2018-12-15T18:10:24.939Z,11.00
2018-12-15T18:15:30.379Z,11.00
2018-12-15T18:20:35.592Z,11.10
2018-12-15T18:25:41.983Z,11.10
2018-12-15T18:30:48.839Z,10.90
2018-12-15T18:35:53.755Z,10.80
2018-12-15T18:40:59.092Z,10.50
2018-12-15T18:46:04.061Z,10.80
2018-12-15T19:04:20.267Z,10.80
2018-12-15T19:09:25.123Z,10.80
2018-12-15T19:14:31.152Z,10.70
2018-12-15T19:19:36.349Z,10.50
2018-12-15T19:24:42.082Z,10.50
2018-12-15T19:29:48.935Z,10.60
2018-12-15T19:34:54.001Z,10.50
2018-12-15T19:39:59.927Z,10.40
2018-12-15T19:45:05.474Z,10.40
2018-12-15T19:50:11.263Z,10.30
2018-12-15T19:55:16.317Z,10.50
2018-12-15T20:00:22.342Z,10.70
2018-12-15T20:05:28.664Z,10.80
2018-12-15T20:10:33.731Z,10.70
2018-12-15T20:15:40.612Z,10.70
2018-12-15T20:20:45.732Z,10.50
2018-12-15T20:25:52.627Z,10.40
2018-12-15T20:30:58.369Z,10.40
2018-12-15T20:36:03.399Z,10.70
2018-12-15T20:41:09.257Z,10.70
2018-12-15T20:46:14.209Z,10.80
2018-12-15T20:51:20.369Z,10.90
2018-12-15T20:56:25.380Z,11.00
2018-12-15T21:01:31.307Z,11.00
2018-12-15T21:06:36.292Z,10.80
2018-12-15T21:11:42.141Z,10.60
2018-12-15T21:16:48.547Z,10.50
2018-12-15T21:21:53.636Z,10.50
2018-12-15T21:26:59.795Z,10.60
2018-12-15T21:32:04.752Z,10.60
2018-12-15T21:37:10.286Z,10.60
2018-12-15T21:42:15.483Z,10.70
2018-12-15T21:47:20.978Z,10.70
2018-12-15T21:52:25.891Z,10.80
2018-12-15T21:57:32.150Z,10.70
2018-12-15T22:02:37.645Z,10.60
2018-12-15T22:07:42.549Z,10.60
2018-12-15T22:12:48.389Z,10.90
2018-12-15T22:17:53.936Z,11.10
2018-12-15T22:23:02.575Z,11.60
2018-12-15T22:28:08.462Z,12.00
2018-12-15T22:33:13.287Z,12.40
2018-12-15T22:38:19.237Z,12.40
2018-12-15T22:43:24.372Z,12.30
2018-12-15T22:48:31.163Z,12.20
2018-12-15T22:53:36.051Z,12.20
2018-12-15T22:58:48.654Z,12.00
2018-12-15T23:03:53.673Z,11.90
2018-12-15T23:09:00.397Z,12.00
2018-12-15T23:14:05.247Z,12.00
2018-12-15T23:19:11.186Z,12.10
2018-12-15T23:24:16.179Z,12.00
2018-12-15T23:29:22.099Z,11.80
2018-12-15T23:34:28.350Z,11.70
2018-12-15T23:39:33.267Z,11.70
2018-12-15T23:44:39.144Z,11.60
2018-12-15T23:49:43.979Z,11.50
2018-12-15T23:54:49.022Z,11.60
2018-12-15T23:59:54.080Z,11.70
